Погода Илобаскона 2 недели

Кускатлан, Сальвадор

24 февраля-07 марта
  • 24февраля
    Сегодня
    +19°
    +36°
    Ясно и безоблачно
    ВремяПогодаТемператураВлажностьДавлениеВетер, м/сВероятность осадков
    00:00Ясно и безоблачно+19°C90 %704 мм0.6 м/с2 %
    03:00Ясно и безоблачно+18°C94 %704 мм1.1 м/с2 %
    06:00Ясно и безоблачно+17°C96 %705 мм1.4 м/с2 %
    09:00Ясно и безоблачно+26°C48 %707 мм2.7 м/с2 %
    12:00Ясно и безоблачно+32°C26 %707 мм3.0 м/с2 %
    15:00Ясно и безоблачно+35°C22 %705 мм2.2 м/с2 %
    18:00Ясно и безоблачно+28°C34 %705 мм0.6 м/с2 %
    21:00Ясно и безоблачно+23°C46 %707 мм3.8 м/с2 %
  • 25февраля
    Воскресенье
    +18°
    +36°
    Ясно и безоблачно
    ВремяПогодаТемператураВлажностьДавлениеВетер, м/сВероятность осадков
    00:00Ясно и безоблачно+21°C57 %707 мм2.9 м/с2 %
    03:00Ясно и безоблачно+20°C66 %706 мм2.7 м/с2 %
    06:00Ясно и безоблачно+18°C68 %706 мм2.8 м/с2 %
    09:00Ясно и безоблачно+26°C47 %708 мм3.4 м/с2 %
    12:00Ясно и безоблачно+33°C30 %708 мм2.2 м/с2 %
    15:00Ясно и безоблачно+35°C23 %705 мм1.8 м/с2 %
    18:00Ясно и безоблачно+28°C49 %705 мм1.7 м/с2 %
    21:00Ясно и безоблачно+24°C48 %706 мм3.1 м/с2 %
  • 26февраля
    Понедельник
    +18°
    +35°
    Ясно и безоблачно
    ВремяПогодаТемператураВлажностьДавлениеВетер, м/сВероятность осадков
    00:00Ясно и безоблачно+21°C66 %706 мм2.0 м/с2 %
    03:00Ясно и безоблачно+18°C73 %705 мм2.7 м/с2 %
    06:00Ясно и безоблачно+17°C80 %706 мм2.3 м/с2 %
    09:00Ясно и безоблачно+25°C49 %708 мм2.6 м/с2 %
    12:00Ясно и безоблачно+32°C24 %707 мм1.5 м/с2 %
    15:00Ясно и безоблачно+34°C17 %705 мм2.5 м/с2 %
    18:00Ясно и безоблачно+27°C45 %704 мм3.4 м/с2 %
    21:00Ясно и безоблачно+22°C51 %705 мм1.1 м/с2 %
  • 27февраля
    Вторник
    +19°
    +35°
    Ясно и безоблачно
    ВремяПогодаТемператураВлажностьДавлениеВетер, м/сВероятность осадков
    00:00Ясно и безоблачно+21°C58 %705 мм1.2 м/с2 %
    03:00Ясно и безоблачно+19°C73 %704 мм2.1 м/с2 %
    06:00Ясно и безоблачно+18°C84 %705 мм1.8 м/с2 %
    09:00Ясно и безоблачно+26°C50 %707 мм1.6 м/с2 %
    12:00Ясно и безоблачно+32°C26 %706 мм2.4 м/с2 %
    15:00Ясно и безоблачно+35°C19 %704 мм2.4 м/с2 %
    18:00Ясно и безоблачно+28°C49 %703 мм3.7 м/с2 %
    21:00Ясно и безоблачно+22°C60 %703 мм1.0 м/с2 %
Мы используем cookies
Соглашаюсь